HomeShort term forecast

Short term forecast

Graphical weather forecast for the next 48 hours for Montreal:
Short term forecast
This weather forecast is automatically refreshed every 3 hours.

Hourly Experimental Forecast for the next 48 hours ®

Overall summary: Foggy tomorrow morning.

 Date & Hour   Temp   Feel   Baro   Hum   Speed & Bearing   Precipitation   Visibility   Cloud cover   Conditions 
 19/01/2018 - 03:00  -4.1°C  -8.6°C  1013.1 hPa  81%  11.5 km/h   --  16.1km  73%  Mostly Cloudy 
 19/01/2018 - 04:00  -4.3°C  -8.8°C  1013.0 hPa  81%  11.5 km/h   0.02 mm/h  16.1km  83%  Mostly Cloudy 
 19/01/2018 - 05:00  -4.9°C  -9.4°C  1012.8 hPa  81%  10.9 km/h   0.01 mm/h  16.1km  88%  Mostly Cloudy 
 19/01/2018 - 06:00  -5.6°C  -9.9°C  1012.6 hPa  80%  9.5 km/h   --  6.7km  87%  Mostly Cloudy 
 19/01/2018 - 07:00  -5.9°C  -9.7°C  1012.7 hPa  80%  8.2 km/h   --  0.1km  83%  Foggy 
 19/01/2018 - 08:00  -5.3°C  -9.1°C  1013.0 hPa  81%  8.3 km/h   0.01 mm/h  1.0km  85%  Foggy 
 19/01/2018 - 09:00  -4.3°C  -8.2°C  1013.4 hPa  82%  9.1 km/h   0.01 mm/h  5.5km  90%  Mostly Cloudy 
 19/01/2018 - 10:00  -3.5°C  -7.5°C  1013.4 hPa  84%  10.3 km/h   0.03 mm/h  10.1km  94%  Overcast 
 19/01/2018 - 11:00  -2.8°C  -7.2°C  1012.6 hPa  85%  12.1 km/h   0.03 mm/h  15.1km  96%  Overcast 
 19/01/2018 - 12:00  -2.2°C  -7.0°C  1011.4 hPa  85%  14.3 km/h   0.03 mm/h  16.1km  97%  Overcast 
 19/01/2018 - 13:00  -1.7°C  -6.6°C  1010.4 hPa  85%  15.8 km/h   0.03 mm/h  16.1km  97%  Overcast 
 19/01/2018 - 14:00  -1.4°C  -6.2°C  1010.0 hPa  85%  15.6 km/h   0.02 mm/h  16.1km  98%  Overcast 
 19/01/2018 - 15:00  -1.3°C  -5.9°C  1009.9 hPa  85%  14.7 km/h   0.03 mm/h  7.1km  97%  Overcast 
 19/01/2018 - 16:00  -1.3°C  -5.8°C  1009.7 hPa  85%  14.3 km/h   0.03 mm/h  1.1km  97%  Foggy 
 19/01/2018 - 17:00  -1.1°C  -5.8°C  1009.6 hPa  84%  15.1 km/h   0.03 mm/h  1.7km  98%  Foggy 
 19/01/2018 - 18:00  -1.5°C  -6.5°C  1009.5 hPa  85%  16.4 km/h   0.04 mm/h  5.6km  98%  Overcast 
 19/01/2018 - 19:00  -1.8°C  -7.0°C  1009.1 hPa  86%  17.4 km/h   0.05 mm/h  9.4km  98%  Overcast 
 19/01/2018 - 20:00  -2.0°C  -7.3°C  1008.4 hPa  86%  17.7 km/h   0.04 mm/h  12.7km  98%  Overcast 
 19/01/2018 - 21:00  -2.0°C  -7.4°C  1007.4 hPa  85%  17.7 km/h   0.03 mm/h  16.0km  98%  Overcast 
 19/01/2018 - 22:00  -1.8°C  -7.2°C  1006.3 hPa  83%  17.9 km/h   0.03 mm/h  16.1km  98%  Overcast 
 19/01/2018 - 23:00  -1.5°C  -6.8°C  1005.4 hPa  82%  18.3 km/h   0.04 mm/h  16.1km  95%  Overcast 
 20/01/2018 - 00:00  -1.1°C  -6.5°C  1004.4 hPa  82%  18.8 km/h   0.11 mm/h  14.7km  92%  Mostly Cloudy 
 20/01/2018 - 01:00  -0.8°C  -6.1°C  1003.5 hPa  82%  19.8 km/h   0.18 mm/h  14.0km  91%  Mostly Cloudy 
 20/01/2018 - 02:00  -0.2°C  -5.7°C  1002.6 hPa  81%  21.5 km/h   0.16 mm/h  16.1km  93%  Mostly Cloudy 
 20/01/2018 - 03:00  0.3°C  -5.3°C  1001.8 hPa  80%  23.7 km/h   0.12 mm/h  16.1km  97%  Overcast 
 20/01/2018 - 04:00  0.8°C  -5.0°C  1001.3 hPa  79%  26.0 km/h   0.10 mm/h  16.1km  100%  Breezy and Overcast 
 20/01/2018 - 05:00  0.9°C  -5.0°C  1000.9 hPa  78%  28.2 km/h   0.09 mm/h  16.1km  100%  Breezy and Overcast 
 20/01/2018 - 06:00  1.0°C  -5.2°C  1000.8 hPa  78%  30.4 km/h   0.08 mm/h  16.1km  100%  Breezy and Overcast 
 20/01/2018 - 07:00  0.9°C  -5.4°C  1000.9 hPa  78%  32.1 km/h   0.06 mm/h  16.1km  100%  Breezy and Overcast 
 20/01/2018 - 08:00  1.0°C  -5.5°C  1001.4 hPa  80%  33.4 km/h   0.04 mm/h  16.1km  100%  Breezy and Overcast 
 20/01/2018 - 09:00  1.0°C  -5.5°C  1002.1 hPa  81%  34.2 km/h   0.01 mm/h  16.1km  100%  Breezy and Overcast 
 20/01/2018 - 10:00  1.1°C  -5.4°C  1002.8 hPa  83%  34.7 km/h   0.01 mm/h  16.1km  100%  Breezy and Overcast 
 20/01/2018 - 11:00  1.4°C  -5.1°C  1003.0 hPa  84%  35.0 km/h   0.01 mm/h  16.1km  100%  Breezy and Overcast 
 20/01/2018 - 12:00  1.7°C  -4.6°C  1003.2 hPa  85%  35.0 km/h   0.01 mm/h  16.1km  100%  Breezy and Overcast 
 20/01/2018 - 13:00  2.1°C  -4.1°C  1003.4 hPa  86%  34.5 km/h   0.01 mm/h  16.1km  100%  Breezy and Overcast 
 20/01/2018 - 14:00  2.5°C  -3.5°C  1004.0 hPa  86%  33.4 km/h   0.01 mm/h  16.1km  99%  Breezy and Overcast 
 20/01/2018 - 15:00  2.8°C  -3.0°C  1004.6 hPa  85%  31.7 km/h   0.01 mm/h  16.1km  98%  Breezy and Overcast 
 20/01/2018 - 16:00  3.0°C  -2.5°C  1005.5 hPa  84%  30.0 km/h   0.01 mm/h  16.1km  97%  Breezy and Overcast 
 20/01/2018 - 17:00  3.1°C  -2.3°C  1006.7 hPa  84%  28.7 km/h   0.02 mm/h  16.1km  94%  Breezy and Overcast 
 20/01/2018 - 18:00  3.0°C  -2.3°C  1008.1 hPa  84%  27.3 km/h   0.02 mm/h  16.1km  91%  Breezy and Mostly Cloudy 
 20/01/2018 - 19:00  2.6°C  -2.6°C  1009.3 hPa  84%  25.7 km/h   0.02 mm/h  16.1km  85%  Mostly Cloudy 
 20/01/2018 - 20:00  2.1°C  -3.0°C  1010.4 hPa  86%  23.5 km/h   0.01 mm/h  16.1km  73%  Mostly Cloudy 
 20/01/2018 - 21:00  1.5°C  -3.4°C  1011.3 hPa  87%  20.8 km/h   0.01 mm/h  16.1km  58%  Partly Cloudy 
 20/01/2018 - 22:00  1.0°C  -3.7°C  1012.1 hPa  88%  18.1 km/h   0.01 mm/h  16.1km  51%  Partly Cloudy 
 20/01/2018 - 23:00  0.5°C  -3.8°C  1012.9 hPa  88%  15.1 km/h   0.01 mm/h  16.1km  59%  Partly Cloudy 
 21/01/2018 - 00:00  0.1°C  -3.8°C  1013.6 hPa  88%  12.5 km/h   0.02 mm/h  15.6km  75%  Mostly Cloudy 
 21/01/2018 - 01:00  -0.3°C  -3.8°C  1014.2 hPa  87%  10.6 km/h   0.03 mm/h  12.3km  89%  Mostly Cloudy 
 21/01/2018 - 02:00  -0.6°C  -3.7°C  1014.8 hPa  87%  8.6 km/h   0.06 mm/h  9.1km  94%  Overcast 
Test

 

Past weather and reports

Past weatherFind in this section the past weather conditions, weather archive, graphics, reports and statistics.

Current conditions

Current weather condition for MontrealAll you need to know about the current weather conditions for Montreal. Weather data is updated every 10 minutes.

Weather forecast

Current Montreal weatherSince 2004, celinium.com website has provided accurate weather forecast for Montreal's island.